KBQX

Brazos 451 Oil Platform

Brazos 451, Texas, USA
METAR KBQX 180155Z AUTO 16012KT 10SM CLR 30/25 A3003 RMK A01
Observed Flight Rules
Aug-18 @ 01:55 UTC (36 minutes ago) Visual Flight Rules
Wind Visibility Clouds
160° at 12 knots 10 miles
  • Clear skies
Temperatures Readings
Current 30°C / 86°F
Dewpoint 25°C / 77°F
Humidity 75%
Altimeter 30.03" Hg
Pressure 1017 hPa
Elevation 34
METAR KBQX 180155Z AUTO 16012KT 10SM CLR 30/25 A3003 RMK A01
Observed Flight Rules
Aug-18 @ 01:55 UTC
(36 minutes ago)
VFR
Wind Visibility
160° at 12 knots 10 miles
Clouds
  • Clear skies
Temperature Dewpoint
30°C / 86°F 25°C / 77°F
Humidity Altimeter Pressure
75% 30.03" Hg 1017 hPa